createdAt,value
2019-03-27T00:01:29.258Z,3.55
2019-03-27T00:03:58.754Z,3.20
2019-03-27T00:06:28.123Z,3.72
2019-03-27T00:08:57.451Z,3.47
2019-03-27T00:11:26.804Z,3.60
2019-03-27T00:13:56.278Z,3.33
2019-03-27T00:16:25.610Z,4.22
2019-03-27T00:18:55.013Z,3.17
2019-03-27T00:21:24.363Z,3.80
2019-03-27T00:23:53.732Z,3.37
2019-03-27T00:26:23.083Z,3.80
2019-03-27T00:28:52.435Z,3.52
2019-03-27T00:31:21.786Z,4.20
2019-03-27T00:33:51.105Z,4.12
2019-03-27T00:36:20.439Z,3.20
2019-03-27T00:38:49.959Z,3.40
2019-03-27T00:41:19.312Z,3.40
2019-03-27T00:43:49.773Z,3.92
2019-03-27T00:46:19.105Z,3.52
2019-03-27T00:48:48.473Z,3.35
2019-03-27T00:51:17.905Z,3.65
2019-03-27T00:53:47.243Z,3.35
2019-03-27T00:56:16.646Z,4.05
2019-03-27T00:58:46.293Z,3.33
2019-03-27T01:01:15.793Z,3.90
2019-03-27T01:03:48.415Z,4.05
2019-03-27T01:06:17.960Z,4.03
2019-03-27T01:08:50.347Z,3.87
2019-03-27T01:11:19.695Z,3.85
2019-03-27T01:13:49.055Z,5.03
2019-03-27T01:16:18.390Z,5.30
2019-03-27T01:19:08.712Z,7.10
2019-03-27T01:21:38.270Z,6.20
2019-03-27T01:24:07.594Z,6.17
2019-03-27T01:26:36.930Z,6.35
2019-03-27T01:29:06.322Z,6.50
2019-03-27T01:31:35.655Z,6.25
2019-03-27T01:34:04.990Z,6.87
2019-03-27T01:36:34.360Z,6.37
2019-03-27T01:39:05.461Z,6.00
2019-03-27T01:41:34.787Z,5.90
2019-03-27T01:44:04.139Z,5.25
2019-03-27T01:46:33.483Z,5.45
2019-03-27T01:49:02.811Z,6.05
2019-03-27T01:51:32.140Z,5.65
2019-03-27T01:54:01.495Z,4.97
2019-03-27T01:56:30.822Z,4.35
2019-03-27T01:59:00.147Z,4.55
2019-03-27T02:01:29.502Z,4.80
2019-03-27T02:03:59.874Z,5.12
2019-03-27T02:06:29.235Z,4.97
2019-03-27T02:08:58.559Z,4.95
2019-03-27T02:11:27.888Z,4.90
2019-03-27T02:13:57.417Z,4.75
2019-03-27T02:16:26.753Z,5.95
2019-03-27T02:18:56.086Z,5.58
2019-03-27T02:21:25.495Z,6.90
2019-03-27T02:23:54.839Z,6.10
2019-03-27T02:26:24.159Z,6.40
2019-03-27T02:28:53.488Z,6.92
2019-03-27T02:31:22.857Z,6.33
2019-03-27T02:33:52.173Z,6.45
2019-03-27T02:36:21.777Z,7.25
2019-03-27T02:38:51.117Z,7.53
2019-03-27T02:41:20.464Z,7.37
2019-03-27T02:43:50.827Z,7.95
2019-03-27T02:46:24.860Z,9.03
2019-03-27T02:48:51.309Z,8.35
2019-03-27T02:51:20.647Z,9.33
2019-03-27T02:53:49.959Z,10.20
2019-03-27T02:56:19.326Z,10.00
2019-03-27T02:58:48.764Z,9.85
2019-03-27T03:01:18.739Z,10.32
2019-03-27T03:03:48.121Z,9.90
2019-03-27T03:06:30.089Z,10.50
2019-03-27T03:08:59.760Z,11.05
2019-03-27T03:11:29.748Z,11.12
2019-03-27T03:13:59.188Z,11.20
2019-03-27T03:16:41.266Z,11.35
2019-03-27T03:18:59.556Z,11.30
2019-03-27T03:21:28.910Z,11.08
2019-03-27T03:23:58.511Z,12.60
2019-03-27T03:26:27.846Z,11.73
2019-03-27T03:28:57.176Z,12.10
2019-03-27T03:31:26.544Z,11.83
2019-03-27T03:33:56.992Z,12.28
2019-03-27T03:36:27.892Z,12.00
2019-03-27T03:38:57.232Z,12.20
2019-03-27T03:41:26.642Z,11.50
2019-03-27T03:43:56.088Z,11.10
2019-03-27T03:46:25.446Z,11.63
2019-03-27T03:48:54.885Z,11.55
2019-03-27T03:51:27.834Z,11.53
2019-03-27T03:53:57.253Z,11.75
2019-03-27T03:56:28.097Z,12.55
2019-03-27T03:58:58.378Z,13.25
2019-03-27T04:01:29.181Z,12.03
2019-03-27T04:03:58.585Z,12.25
2019-03-27T04:06:27.961Z,13.00
2019-03-27T04:08:57.323Z,11.97
2019-03-27T04:11:26.737Z,11.28
2019-03-27T04:13:57.074Z,13.45
2019-03-27T04:16:26.462Z,12.68
2019-03-27T04:18:55.810Z,12.00
2019-03-27T04:21:26.922Z,12.00
2019-03-27T04:23:56.275Z,11.45
2019-03-27T04:26:25.709Z,11.55
2019-03-27T04:28:55.099Z,11.05
2019-03-27T04:31:24.443Z,10.35
2019-03-27T04:33:53.873Z,10.80
2019-03-27T04:36:23.245Z,10.18
2019-03-27T04:38:52.638Z,10.32
2019-03-27T04:41:21.962Z,9.98
2019-03-27T04:43:51.298Z,10.10
2019-03-27T04:46:20.654Z,9.48
2019-03-27T04:48:50.049Z,10.70
2019-03-27T04:51:19.439Z,9.98
2019-03-27T04:53:48.794Z,9.90
2019-03-27T04:56:18.179Z,10.13
2019-03-27T04:58:47.596Z,9.95
2019-03-27T05:01:16.944Z,9.30
2019-03-27T05:03:46.355Z,10.30
2019-03-27T05:06:15.704Z,8.98
2019-03-27T05:08:45.102Z,9.80
2019-03-27T05:11:14.448Z,9.88
2019-03-27T05:13:43.806Z,10.03
2019-03-27T05:16:13.197Z,9.43
2019-03-27T05:18:43.672Z,9.38
2019-03-27T05:21:12.998Z,9.53
2019-03-27T05:23:42.347Z,9.23
2019-03-27T05:26:11.670Z,9.08
2019-03-27T05:28:41.011Z,8.20
2019-03-27T05:31:11.629Z,8.80
2019-03-27T05:33:40.989Z,9.00
2019-03-27T05:36:10.333Z,8.53
2019-03-27T05:38:40.853Z,8.78
2019-03-27T05:41:10.983Z,8.70
2019-03-27T05:43:43.415Z,8.60
2019-03-27T05:46:12.745Z,8.25
2019-03-27T05:48:43.491Z,8.88
2019-03-27T05:51:12.922Z,8.78
2019-03-27T05:53:42.394Z,8.48
2019-03-27T05:56:11.741Z,8.63
2019-03-27T05:58:41.106Z,8.75
2019-03-27T06:01:10.531Z,10.20
2019-03-27T06:03:39.952Z,8.48
2019-03-27T06:06:09.370Z,9.30
2019-03-27T06:08:38.759Z,8.43
2019-03-27T06:11:08.163Z,9.40
2019-03-27T06:13:37.517Z,9.73
2019-03-27T06:16:06.838Z,8.88
2019-03-27T06:18:36.235Z,9.13
2019-03-27T06:21:06.544Z,9.20
2019-03-27T06:23:35.887Z,9.65
2019-03-27T06:26:05.221Z,9.90
2019-03-27T06:28:34.544Z,9.78
2019-03-27T06:31:03.876Z,8.30
2019-03-27T06:33:33.298Z,8.30
2019-03-27T06:36:02.629Z,9.00
2019-03-27T06:38:32.919Z,9.30
2019-03-27T06:41:02.279Z,7.92
2019-03-27T06:43:31.652Z,8.50
2019-03-27T06:46:01.109Z,8.23
2019-03-27T06:48:30.523Z,8.45
2019-03-27T06:51:04.353Z,9.30
2019-03-27T06:56:02.915Z,8.80
2019-03-27T06:58:32.247Z,8.88
2019-03-27T07:01:01.599Z,8.48
2019-03-27T07:03:30.971Z,8.63
2019-03-27T07:06:00.383Z,9.08
2019-03-27T07:08:29.712Z,9.10
2019-03-27T07:10:59.053Z,8.48
2019-03-27T07:13:28.767Z,8.43
2019-03-27T07:15:58.106Z,8.63
2019-03-27T07:18:40.072Z,8.80
2019-03-27T07:21:02.684Z,8.18
2019-03-27T07:23:42.708Z,8.70
2019-03-27T07:26:14.383Z,8.50
2019-03-27T07:28:43.847Z,8.53
2019-03-27T07:31:13.263Z,7.65
2019-03-27T07:33:42.618Z,8.10
2019-03-27T07:36:12.012Z,7.05
2019-03-27T07:38:41.432Z,8.45
2019-03-27T07:41:10.780Z,7.75
2019-03-27T07:43:40.221Z,6.20
2019-03-27T07:46:09.539Z,7.17
2019-03-27T07:48:38.873Z,7.33
2019-03-27T07:51:08.292Z,6.17
2019-03-27T07:53:37.661Z,7.30
2019-03-27T07:56:08.150Z,5.33
2019-03-27T07:58:37.567Z,6.33
2019-03-27T08:01:06.904Z,5.95
2019-03-27T08:03:36.247Z,5.95
2019-03-27T08:06:05.863Z,6.05
2019-03-27T08:08:35.203Z,5.85
2019-03-27T08:11:04.587Z,5.83
2019-03-27T08:13:33.950Z,5.30
2019-03-27T08:16:03.329Z,6.42
2019-03-27T08:18:34.115Z,6.28
2019-03-27T08:21:03.540Z,6.70
2019-03-27T08:23:32.950Z,6.10
2019-03-27T08:26:02.265Z,6.40
2019-03-27T08:28:31.612Z,6.40
2019-03-27T08:31:00.951Z,6.08
2019-03-27T08:33:30.287Z,5.85
2019-03-27T08:35:59.625Z,6.00
2019-03-27T08:38:28.947Z,5.78
2019-03-27T08:40:58.279Z,6.22
2019-03-27T08:43:27.618Z,5.62
2019-03-27T08:45:56.947Z,6.17
2019-03-27T08:48:26.273Z,6.62
2019-03-27T08:50:55.614Z,6.50
2019-03-27T08:53:24.930Z,6.70
2019-03-27T08:55:54.251Z,6.87
2019-03-27T08:58:23.611Z,6.78
2019-03-27T09:00:54.124Z,6.58
2019-03-27T09:03:23.833Z,5.60
2019-03-27T09:05:54.412Z,7.17
2019-03-27T09:08:23.797Z,7.70
2019-03-27T09:10:53.152Z,6.78
2019-03-27T09:13:22.482Z,7.78
2019-03-27T09:15:52.882Z,8.05
2019-03-27T09:18:22.223Z,8.30
2019-03-27T09:20:51.566Z,6.78
2019-03-27T09:23:20.904Z,8.10
2019-03-27T09:25:50.229Z,7.87
2019-03-27T09:28:19.610Z,7.28
2019-03-27T09:30:48.955Z,7.22
2019-03-27T09:33:18.284Z,6.87
2019-03-27T09:35:47.670Z,6.58
2019-03-27T09:38:17.024Z,6.50
2019-03-27T09:40:46.357Z,6.33
2019-03-27T09:43:15.704Z,6.55
2019-03-27T09:45:45.041Z,7.65
2019-03-27T09:48:14.364Z,7.22
2019-03-27T09:50:43.710Z,6.92
2019-03-27T09:53:13.064Z,7.17
2019-03-27T09:55:42.464Z,7.67
2019-03-27T09:58:11.867Z,7.70
2019-03-27T10:00:53.035Z,7.70
2019-03-27T10:03:22.444Z,7.08
2019-03-27T10:05:51.915Z,6.87
2019-03-27T10:08:24.569Z,7.12
2019-03-27T10:10:53.906Z,7.47
2019-03-27T10:13:24.775Z,8.00
2019-03-27T10:15:54.161Z,8.15
2019-03-27T10:18:23.588Z,7.15
2019-03-27T10:20:52.965Z,7.90
2019-03-27T10:23:22.319Z,6.80
2019-03-27T10:25:51.701Z,7.17
2019-03-27T10:28:21.027Z,7.97
2019-03-27T10:30:50.352Z,7.87
2019-03-27T10:33:19.695Z,7.03
2019-03-27T10:35:49.068Z,8.10
2019-03-27T10:38:18.467Z,8.00
2019-03-27T10:40:47.894Z,7.12
2019-03-27T10:43:17.296Z,7.37
2019-03-27T10:45:46.719Z,6.55
2019-03-27T10:48:16.157Z,6.15
2019-03-27T10:50:45.523Z,6.85
2019-03-27T10:53:14.847Z,6.80
2019-03-27T10:55:44.167Z,5.80
2019-03-27T10:58:13.511Z,6.30
2019-03-27T11:00:45.255Z,6.00
2019-03-27T11:03:14.667Z,5.62
2019-03-27T11:05:44.034Z,5.97
2019-03-27T11:08:13.459Z,5.12
2019-03-27T11:10:43.272Z,5.45
2019-03-27T11:13:12.675Z,4.92
2019-03-27T11:15:42.220Z,5.90
2019-03-27T11:18:11.618Z,5.95
2019-03-27T11:20:44.997Z,5.60
2019-03-27T11:23:14.329Z,5.83
2019-03-27T11:25:43.979Z,6.33
2019-03-27T11:28:14.806Z,6.33
2019-03-27T11:30:48.119Z,6.87
2019-03-27T11:33:15.607Z,6.70
2019-03-27T11:35:45.191Z,6.60
2019-03-27T11:38:14.753Z,7.03
2019-03-27T11:40:44.859Z,6.42
2019-03-27T11:43:14.287Z,6.28
2019-03-27T11:45:44.205Z,7.03
2019-03-27T11:48:15.072Z,7.28
2019-03-27T11:50:45.551Z,7.58
2019-03-27T11:53:15.347Z,7.87
2019-03-27T11:55:45.013Z,6.58
2019-03-27T11:58:15.015Z,6.97
2019-03-27T12:00:54.380Z,6.72
2019-03-27T12:03:17.212Z,6.83
2019-03-27T12:05:47.547Z,6.92
2019-03-27T12:08:17.038Z,6.53
2019-03-27T12:10:46.467Z,6.25
2019-03-27T12:13:15.839Z,6.40
2019-03-27T12:15:45.221Z,5.58
2019-03-27T12:18:15.761Z,5.40
2019-03-27T12:20:58.146Z,5.28
2019-03-27T12:23:16.640Z,5.50
2019-03-27T12:25:45.985Z,5.12
2019-03-27T12:28:15.384Z,5.62
2019-03-27T12:30:44.750Z,5.70
2019-03-27T12:33:14.164Z,5.58
2019-03-27T12:35:43.562Z,5.50
2019-03-27T12:38:13.024Z,5.87
2019-03-27T12:40:42.368Z,5.60
2019-03-27T12:43:11.770Z,5.17
2019-03-27T12:45:41.170Z,5.67
2019-03-27T12:48:10.527Z,5.20
2019-03-27T12:50:40.083Z,5.83
2019-03-27T12:53:09.472Z,5.20
2019-03-27T12:55:38.834Z,5.85
2019-03-27T12:58:11.529Z,5.78
2019-03-27T13:00:39.574Z,5.60
2019-03-27T13:03:08.979Z,6.45
2019-03-27T13:05:38.326Z,5.92
2019-03-27T13:08:07.682Z,6.53
2019-03-27T13:10:37.010Z,6.70
2019-03-27T13:13:06.351Z,6.15
2019-03-27T13:15:35.714Z,6.37
2019-03-27T13:18:05.123Z,6.95
2019-03-27T13:20:34.504Z,6.45
2019-03-27T13:23:04.714Z,6.20
2019-03-27T13:25:34.052Z,6.22
2019-03-27T13:28:03.393Z,5.20
2019-03-27T13:30:32.733Z,5.10
2019-03-27T13:33:02.188Z,4.97
2019-03-27T13:35:31.699Z,5.17
2019-03-27T13:38:01.120Z,5.00
2019-03-27T13:40:30.527Z,5.45
2019-03-27T13:42:59.873Z,5.28
2019-03-27T13:45:29.320Z,4.92
2019-03-27T13:47:58.648Z,5.17
2019-03-27T13:50:29.027Z,4.65
2019-03-27T13:52:58.360Z,4.87
2019-03-27T13:55:27.764Z,4.97
2019-03-27T13:57:57.096Z,6.03
2019-03-27T14:00:26.522Z,6.05
2019-03-27T14:02:55.908Z,6.30
2019-03-27T14:05:26.395Z,7.25
2019-03-27T14:07:55.816Z,5.50
2019-03-27T14:10:25.343Z,4.70
2019-03-27T14:13:03.659Z,4.30
2019-03-27T14:15:33.138Z,3.77
2019-03-27T14:18:02.548Z,4.60
2019-03-27T14:20:33.375Z,4.60
2019-03-27T14:23:02.822Z,3.45
2019-03-27T14:25:33.631Z,4.55
2019-03-27T14:28:03.470Z,4.25
2019-03-27T14:30:38.751Z,4.40
2019-03-27T14:33:08.198Z,4.95
2019-03-27T14:35:37.587Z,5.72
2019-03-27T14:38:08.594Z,5.00
2019-03-27T14:40:37.961Z,5.72
2019-03-27T14:43:07.402Z,5.87
2019-03-27T14:45:36.818Z,6.10
2019-03-27T14:48:06.230Z,4.70
2019-03-27T14:50:35.600Z,5.80
2019-03-27T14:53:06.163Z,5.47
2019-03-27T14:55:35.654Z,6.05
2019-03-27T14:58:05.862Z,4.85
2019-03-27T15:00:35.206Z,4.80
2019-03-27T15:03:04.601Z,4.60
2019-03-27T15:05:33.932Z,5.40
2019-03-27T15:08:04.400Z,4.60
2019-03-27T15:10:34.134Z,4.72
2019-03-27T15:13:03.475Z,5.33
2019-03-27T15:15:33.979Z,5.40
2019-03-27T15:18:03.394Z,5.10
2019-03-27T15:20:32.722Z,5.65
2019-03-27T15:23:02.161Z,5.20
2019-03-27T15:25:31.553Z,5.87
2019-03-27T15:28:01.054Z,9.95
2019-03-27T15:30:30.500Z,6.08
2019-03-27T15:32:59.939Z,6.10
2019-03-27T15:35:29.311Z,5.90
2019-03-27T15:37:58.690Z,5.85
2019-03-27T15:40:39.943Z,5.80
2019-03-27T15:43:09.370Z,5.78
2019-03-27T15:45:38.783Z,5.40
2019-03-27T15:48:08.173Z,5.40
2019-03-27T15:50:37.548Z,6.05
2019-03-27T15:53:07.020Z,5.65
2019-03-27T15:55:36.479Z,5.70
2019-03-27T15:58:05.919Z,5.70
2019-03-27T16:00:35.248Z,5.30
2019-03-27T16:03:04.585Z,5.55
2019-03-27T16:05:34.075Z,5.58
2019-03-27T16:08:03.468Z,6.10
2019-03-27T16:10:32.853Z,5.65
2019-03-27T16:13:02.187Z,5.53
2019-03-27T16:15:32.239Z,5.62
2019-03-27T16:18:10.612Z,5.55
2019-03-27T16:20:37.589Z,5.67
2019-03-27T16:23:08.357Z,6.12
2019-03-27T16:25:37.828Z,6.00
2019-03-27T16:28:07.379Z,5.85
2019-03-27T16:30:36.789Z,6.40
2019-03-27T16:33:06.152Z,6.00
2019-03-27T16:35:35.540Z,6.42
2019-03-27T16:38:04.960Z,6.25
2019-03-27T16:40:45.223Z,5.85
2019-03-27T16:43:14.722Z,6.33
2019-03-27T16:45:44.061Z,6.75
2019-03-27T16:48:13.665Z,6.60
2019-03-27T16:50:43.067Z,6.72
2019-03-27T16:53:12.479Z,6.80
2019-03-27T16:55:41.970Z,6.97
2019-03-27T16:58:11.413Z,6.75
2019-03-27T17:00:40.829Z,7.75
2019-03-27T17:03:10.184Z,6.70
2019-03-27T17:05:53.023Z,7.12
2019-03-27T17:08:10.705Z,7.70
2019-03-27T17:10:40.106Z,7.42
2019-03-27T17:13:09.508Z,7.10
2019-03-27T17:15:38.928Z,7.17
2019-03-27T17:18:09.423Z,7.15
2019-03-27T17:20:38.829Z,7.58
2019-03-27T17:23:17.930Z,6.53
2019-03-27T17:25:39.792Z,7.67
2019-03-27T17:28:09.235Z,7.33
2019-03-27T17:30:38.566Z,7.67
2019-03-27T17:33:07.951Z,7.20
2019-03-27T17:35:37.297Z,8.05
2019-03-27T17:38:10.855Z,7.87
2019-03-27T17:40:39.219Z,6.95
2019-03-27T17:43:08.639Z,7.40
2019-03-27T17:45:37.999Z,7.47
2019-03-27T17:48:07.336Z,6.70
2019-03-27T17:50:36.682Z,6.65
2019-03-27T17:53:09.084Z,6.90
2019-03-27T17:55:38.480Z,7.30
2019-03-27T17:58:07.879Z,7.58
2019-03-27T18:00:49.276Z,7.25
2019-03-27T18:03:18.753Z,6.47
2019-03-27T18:05:48.207Z,7.12
2019-03-27T18:08:17.555Z,6.97
2019-03-27T18:10:46.947Z,7.03
2019-03-27T18:13:16.366Z,7.72
2019-03-27T18:15:45.809Z,7.10
2019-03-27T18:18:15.241Z,7.10
2019-03-27T18:20:44.612Z,6.85
2019-03-27T18:23:13.956Z,7.25
2019-03-27T18:25:43.376Z,7.40
2019-03-27T18:28:12.841Z,7.15
2019-03-27T18:30:43.255Z,7.60
2019-03-27T18:33:12.655Z,6.97
2019-03-27T18:35:42.087Z,7.62
2019-03-27T18:38:11.505Z,7.42
2019-03-27T18:40:40.954Z,7.58
2019-03-27T18:43:10.277Z,7.20
2019-03-27T18:45:55.329Z,7.12
2019-03-27T18:48:27.788Z,6.78
2019-03-27T18:50:57.191Z,7.70
2019-03-27T18:53:26.541Z,7.33
2019-03-27T18:55:55.931Z,7.80
2019-03-27T18:58:25.351Z,8.30
2019-03-27T19:00:54.700Z,7.62
2019-03-27T19:03:24.116Z,8.18
2019-03-27T19:05:53.482Z,8.18
2019-03-27T19:08:22.892Z,8.20
2019-03-27T19:10:52.223Z,8.28
2019-03-27T19:13:25.026Z,8.35
2019-03-27T19:15:54.512Z,8.45
2019-03-27T19:18:23.911Z,8.65
2019-03-27T19:20:53.274Z,8.20
2019-03-27T19:23:22.702Z,8.85
2019-03-27T19:25:52.157Z,8.33
2019-03-27T19:28:22.010Z,8.08
2019-03-27T19:30:51.463Z,8.30
2019-03-27T19:33:20.892Z,7.70
2019-03-27T19:35:52.932Z,8.85
2019-03-27T19:38:22.348Z,8.33
2019-03-27T19:40:51.858Z,8.05
2019-03-27T19:43:21.436Z,7.20
2019-03-27T19:45:51.009Z,7.28
2019-03-27T19:48:20.443Z,7.83
2019-03-27T19:50:49.938Z,8.48
2019-03-27T19:53:19.316Z,7.70
2019-03-27T19:55:48.696Z,8.10
2019-03-27T19:58:18.067Z,10.25
2019-03-27T20:00:47.497Z,7.12
2019-03-27T20:03:16.958Z,8.05
2019-03-27T20:05:46.438Z,8.08
2019-03-27T20:08:16.004Z,7.58
2019-03-27T20:10:45.590Z,8.03
2019-03-27T20:13:16.725Z,7.53
2019-03-27T20:15:46.188Z,8.08
2019-03-27T20:18:15.713Z,7.97
2019-03-27T20:20:46.323Z,8.43
2019-03-27T20:23:15.790Z,8.60
2019-03-27T20:25:45.295Z,9.28
2019-03-27T20:28:14.736Z,9.23
2019-03-27T20:30:44.312Z,9.98
2019-03-27T20:33:14.914Z,9.45
2019-03-27T20:35:45.969Z,10.30
2019-03-27T20:38:15.326Z,10.98
2019-03-27T20:40:44.933Z,11.43
2019-03-27T20:43:14.490Z,12.00
2019-03-27T20:45:44.012Z,12.00
2019-03-27T20:48:13.698Z,15.43
2019-03-27T20:50:44.992Z,11.25
2019-03-27T20:53:15.153Z,12.40
2019-03-27T20:55:44.960Z,13.35
2019-03-27T20:58:15.026Z,12.88
2019-03-27T21:00:44.507Z,13.38
2019-03-27T21:03:13.899Z,13.93
2019-03-27T21:05:43.247Z,13.95
2019-03-27T21:08:12.623Z,13.32
2019-03-27T21:10:42.028Z,13.53
2019-03-27T21:13:11.441Z,14.50
2019-03-27T21:15:40.948Z,15.70
2019-03-27T21:18:10.295Z,15.48
2019-03-27T21:20:39.660Z,16.70
2019-03-27T21:23:09.028Z,18.40
2019-03-27T21:25:38.450Z,18.45
2019-03-27T21:28:07.866Z,20.90
2019-03-27T21:30:37.350Z,20.65
2019-03-27T21:33:06.799Z,21.42
2019-03-27T21:35:36.323Z,21.33
2019-03-27T21:38:07.855Z,22.07
2019-03-27T21:40:37.315Z,22.52
2019-03-27T21:43:06.708Z,23.50
2019-03-27T21:45:36.081Z,21.60
2019-03-27T21:48:11.511Z,22.00
2019-03-27T21:50:40.921Z,20.60
2019-03-27T21:53:10.254Z,20.50
2019-03-27T21:55:43.064Z,19.80
2019-03-27T21:58:11.999Z,19.65
2019-03-27T22:00:41.429Z,19.52
2019-03-27T22:03:11.133Z,18.75
2019-03-27T22:05:40.615Z,17.62
2019-03-27T22:08:10.020Z,20.62
2019-03-27T22:10:41.032Z,21.20
2019-03-27T22:13:10.360Z,18.87
2019-03-27T22:15:39.789Z,21.07
2019-03-27T22:18:09.243Z,19.82
2019-03-27T22:20:39.796Z,21.70
2019-03-27T22:23:09.465Z,20.70
2019-03-27T22:25:38.949Z,21.10
2019-03-27T22:28:09.476Z,21.05
2019-03-27T22:30:42.473Z,21.48
2019-03-27T22:33:11.976Z,22.13
2019-03-27T22:35:42.224Z,20.35
2019-03-27T22:38:11.633Z,22.45
2019-03-27T22:40:55.561Z,20.20
2019-03-27T22:43:24.894Z,21.48
2019-03-27T22:45:54.271Z,20.62
2019-03-27T22:48:28.859Z,19.82
2019-03-27T22:51:01.670Z,21.10
2019-03-27T22:53:31.089Z,18.77
2019-03-27T22:56:00.587Z,19.82
2019-03-27T22:58:31.207Z,19.57
2019-03-27T23:01:01.053Z,19.67
2019-03-27T23:03:31.621Z,19.27
2019-03-27T23:06:04.836Z,19.48
2019-03-27T23:08:34.258Z,17.50
2019-03-27T23:11:03.814Z,17.98
2019-03-27T23:13:34.067Z,18.62
2019-03-27T23:16:03.387Z,17.48
2019-03-27T23:18:33.226Z,17.92
2019-03-27T23:21:02.942Z,16.35
2019-03-27T23:23:32.677Z,15.68
2019-03-27T23:26:03.615Z,16.87
2019-03-27T23:28:33.318Z,17.07
2019-03-27T23:31:02.786Z,18.20
2019-03-27T23:33:32.272Z,16.82
2019-03-27T23:36:06.317Z,16.82
2019-03-27T23:38:35.910Z,15.13
2019-03-27T23:41:06.375Z,16.12
2019-03-27T23:43:35.762Z,16.57
2019-03-27T23:46:05.281Z,15.80
2019-03-27T23:48:34.730Z,16.37
2019-03-27T23:51:04.248Z,16.95
2019-03-27T23:53:33.763Z,17.80
2019-03-27T23:56:15.600Z,17.45
2019-03-27T23:58:35.105Z,18.55
